Time;durP1;ratioP1;P1;durP2;ratioP2;P2;SDS_P1;SDS_P2;PMS_P1;PMS_P2;Temp;Humidity;BMP_temperature;BMP_pressure;BME280_temperature;BME280_humidity;BME280_pressure;Samples;Min_cycle;Max_cycle;Signal;HPM_P1;HPM_P2
2023/09/06 00:01:07;;;;;;;5.65;4.40;;;;;;;18.93;66.65;95735.88;5008511;28;20210;-84
2023/09/06 00:03:36;;;;;;;5.00;4.60;;;;;;;18.96;66.79;95730.22;5003372;28;20226;-83
2023/09/06 00:06:03;;;;;;;5.75;4.63;;;;;;;19.03;66.16;95719.69;5013089;28;20226;-83
2023/09/06 00:08:33;;;;;;;4.95;4.55;;;;;;;18.95;66.33;95721.59;5003903;28;20206;-84
2023/09/06 00:11:04;;;;;;;5.00;4.60;;;;;;;18.97;66.12;95706.50;4976219;28;20786;-84
2023/09/06 00:13:33;;;;;;;5.20;4.70;;;;;;;18.97;66.06;95710.94;5005838;28;20246;-84
2023/09/06 00:16:00;;;;;;;5.32;4.57;;;;;;;18.96;66.03;95698.91;5013752;28;20199;-83
2023/09/06 00:18:27;;;;;;;6.88;5.05;;;;;;;18.87;66.71;95724.53;5004894;28;20558;-83
2023/09/06 00:20:54;;;;;;;6.65;4.90;;;;;;;18.82;66.83;95727.03;5013140;28;20257;-83
2023/09/06 00:23:21;;;;;;;5.07;4.57;;;;;;;18.80;66.76;95723.06;5012919;28;20245;-84
2023/09/06 00:25:48;;;;;;;5.25;4.72;;;;;;;18.79;67.04;95727.47;5012284;28;20233;-84
2023/09/06 00:28:14;;;;;;;7.75;5.10;;;;;;;18.89;66.58;95711.25;5012466;28;20707;-84
2023/09/06 00:30:44;;;;;;;5.30;4.82;;;;;;;18.91;66.47;95711.81;5013208;28;20206;-84
2023/09/06 00:33:11;;;;;;;4.93;4.53;;;;;;;18.87;66.42;95715.91;5009358;28;20230;-84
2023/09/06 00:35:39;;;;;;;5.22;4.82;;;;;;;18.82;66.77;95721.03;5011699;28;20206;-84
2023/09/06 00:38:06;;;;;;;4.97;4.57;;;;;;;18.79;66.82;95724.88;5012585;28;20203;-83
2023/09/06 00:40:36;;;;;;;5.28;4.75;;;;;;;18.77;67.08;95736.53;5012550;28;20202;-84
2023/09/06 00:43:03;;;;;;;6.22;4.88;;;;;;;18.74;66.87;95731.75;5001301;28;20219;-84
2023/09/06 00:45:32;;;;;;;4.97;4.47;;;;;;;18.80;66.53;95716.03;4992945;28;20262;-84
2023/09/06 00:48:01;;;;;;;7.20;4.72;;;;;;;18.80;66.50;95708.19;5000023;28;20213;-84
2023/09/06 00:50:28;;;;;;;5.05;4.65;;;;;;;18.68;66.25;95706.56;5009314;28;20424;-84
2023/09/06 00:52:55;;;;;;;5.32;4.93;;;;;;;18.66;66.58;95716.44;4997600;28;20419;-84
2023/09/06 00:55:22;;;;;;;5.47;4.97;;;;;;;18.66;66.48;95706.03;4993502;28;20204;-84
2023/09/06 00:57:49;;;;;;;5.68;5.07;;;;;;;18.61;66.43;95712.69;4999314;28;20231;-83
2023/09/06 01:00:17;;;;;;;5.78;5.00;;;;;;;18.63;66.45;95709.88;5015897;28;20207;-84
2023/09/06 01:02:44;;;;;;;8.32;4.75;;;;;;;18.66;66.30;95706.81;5015864;28;20222;-83
2023/09/06 01:05:12;;;;;;;8.48;5.30;;;;;;;18.58;66.51;95710.50;5013979;28;20222;-83
2023/09/06 01:07:40;;;;;;;5.88;5.28;;;;;;;18.39;67.34;95722.00;5010315;28;20237;-83
2023/09/06 01:10:08;;;;;;;5.32;4.93;;;;;;;18.39;67.35;95739.47;5016125;28;20599;-84
2023/09/06 01:12:34;;;;;;;5.00;4.47;;;;;;;18.37;67.66;95746.69;5014840;28;20194;-83
2023/09/06 01:15:01;;;;;;;5.30;4.50;;;;;;;18.39;67.40;95742.88;5016045;28;20704;-84
2023/09/06 01:17:29;;;;;;;5.00;4.55;;;;;;;18.42;67.36;95741.63;5016059;28;20491;-84
2023/09/06 01:20:08;;;;;;;4.72;4.32;;;;;;;18.43;67.22;95735.41;5016500;28;20719;-84
2023/09/06 01:22:41;;;;;;;5.22;4.82;;;;;;;18.24;67.95;95769.31;5011370;28;20499;-84
2023/09/06 01:25:11;;;;;;;4.78;4.32;;;;;;;18.19;68.27;95768.38;5016354;28;20222;-84
2023/09/06 01:27:38;;;;;;;5.40;4.95;;;;;;;18.11;68.52;95779.88;5016270;28;20429;-84
2023/09/06 01:30:07;;;;;;;5.50;4.97;;;;;;;18.08;68.34;95767.31;5016932;28;20211;-84
2023/09/06 01:32:34;;;;;;;5.00;4.50;;;;;;;18.10;68.54;95769.69;5015771;28;20743;-84
2023/09/06 01:35:00;;;;;;;6.18;4.57;;;;;;;18.03;68.77;95774.19;5016483;28;20238;-84
2023/09/06 01:37:26;;;;;;;5.05;4.65;;;;;;;18.08;68.58;95775.13;5015064;28;20206;-83
2023/09/06 01:39:53;;;;;;;5.30;4.65;;;;;;;18.01;69.23;95786.63;5010295;28;20202;-84
2023/09/06 01:42:22;;;;;;;5.22;4.72;;;;;;;18.03;68.93;95769.78;5001228;28;20218;-84
2023/09/06 01:44:49;;;;;;;5.35;4.95;;;;;;;18.04;68.95;95781.78;4996998;28;20223;-85
2023/09/06 01:47:15;;;;;;;5.10;4.60;;;;;;;18.01;68.66;95761.38;4999798;28;20225;-83
2023/09/06 01:49:45;;;;;;;5.53;4.95;;;;;;;18.02;68.64;95762.19;5015585;28;20207;-84
2023/09/06 01:52:11;;;;;;;5.53;5.03;;;;;;;18.03;68.31;95748.13;5015020;28;20207;-84
2023/09/06 01:54:37;;;;;;;5.07;4.57;;;;;;;18.02;68.76;95762.97;5010201;28;20218;-84
2023/09/06 01:57:06;;;;;;;6.53;5.28;;;;;;;18.03;68.26;95748.13;5007352;28;20213;-84
2023/09/06 01:59:34;;;;;;;5.95;5.20;;;;;;;18.00;68.75;95759.00;5016284;28;20191;-85
2023/09/06 02:02:00;;;;;;;5.57;5.07;;;;;;;17.85;69.04;95769.78;5013741;28;20203;-84
2023/09/06 02:04:26;;;;;;;5.68;4.82;;;;;;;17.81;69.71;95781.63;5015496;28;20230;-84
2023/09/06 02:06:53;;;;;;;5.38;4.88;;;;;;;17.82;69.60;95781.44;5015705;28;20223;-84
2023/09/06 02:09:20;;;;;;;5.50;5.00;;;;;;;17.82;69.64;95780.63;4995968;28;20665;-84
2023/09/06 02:11:46;;;;;;;5.70;5.20;;;;;;;17.83;69.61;95772.59;4999157;28;20250;-84
2023/09/06 02:14:13;;;;;;;4.97;4.57;;;;;;;17.89;69.48;95776.97;4995264;28;20234;-83
2023/09/06 02:16:40;;;;;;;5.35;4.80;;;;;;;18.03;68.82;95758.56;5009571;28;20245;-83
2023/09/06 02:19:07;;;;;;;5.90;5.13;;;;;;;18.04;68.61;95749.72;5013895;28;20656;-84
2023/09/06 02:21:34;;;;;;;6.78;4.82;;;;;;;18.03;68.66;95758.56;5015504;28;20203;-84
2023/09/06 02:24:00;;;;;;;5.50;4.68;;;;;;;18.07;67.99;95747.50;5015453;28;20225;-84
2023/09/06 02:26:29;;;;;;;5.20;4.70;;;;;;;18.06;67.92;95734.69;5009144;28;20238;-84
2023/09/06 02:28:56;;;;;;;6.88;4.80;;;;;;;18.00;67.81;95722.50;5006279;28;20208;-83
2023/09/06 02:31:23;;;;;;;5.05;4.65;;;;;;;17.91;68.25;95740.25;5002230;28;20206;-84
2023/09/06 02:33:51;;;;;;;5.68;5.10;;;;;;;17.81;68.39;95729.56;5014386;28;20222;-84
2023/09/06 02:36:17;;;;;;;5.63;5.13;;;;;;;17.49;69.54;95778.34;5014886;28;20199;-84
2023/09/06 02:38:43;;;;;;;5.22;4.72;;;;;;;17.54;69.52;95779.25;5014592;28;20209;-84
2023/09/06 02:41:10;;;;;;;5.35;4.78;;;;;;;17.53;69.51;95767.25;5014823;28;20194;-84
2023/09/06 02:43:37;;;;;;;5.63;5.05;;;;;;;17.47;69.79;95772.53;5005114;28;20232;-85
2023/09/06 02:46:03;;;;;;;5.00;4.40;;;;;;;17.49;70.02;95788.75;5012229;28;20768;-84
2023/09/06 02:48:33;;;;;;;6.85;4.97;;;;;;;17.51;69.78;95778.91;5014816;28;20195;-84
2023/09/06 02:51:00;;;;;;;5.10;4.60;;;;;;;17.64;69.14;95764.97;5015097;28;20203;-84
2023/09/06 02:53:31;;;;;;;4.78;4.35;;;;;;;17.77;68.80;95768.25;5014424;28;20226;-84
2023/09/06 02:55:59;;;;;;;6.68;4.85;;;;;;;17.77;70.10;95794.28;5013896;28;20250;-84
2023/09/06 02:58:25;;;;;;;5.35;4.68;;;;;;;17.82;68.57;95771.00;4997323;28;20719;-84
2023/09/06 03:00:55;;;;;;;5.45;4.95;;;;;;;17.82;68.11;95738.97;5002987;28;20338;-84
2023/09/06 03:03:22;;;;;;;5.53;4.50;;;;;;;17.79;67.97;95740.19;5014046;28;20280;-84
2023/09/06 03:05:48;;;;;;;4.78;4.38;;;;;;;17.82;67.99;95738.97;5013629;28;20222;-84
2023/09/06 03:08:16;;;;;;;5.47;4.57;;;;;;;17.60;68.25;95744.56;5013811;28;20205;-84
2023/09/06 03:10:44;;;;;;;5.78;5.28;;;;;;;17.50;68.87;95761.69;5014618;28;20277;-84
2023/09/06 03:13:11;;;;;;;5.85;5.18;;;;;;;17.45;69.32;95777.97;5014243;28;20230;-84
2023/09/06 03:15:37;;;;;;;6.68;4.95;;;;;;;17.49;69.40;95786.94;5009820;28;20199;-84
2023/09/06 03:18:05;;;;;;;7.07;4.90;;;;;;;17.53;68.92;95777.66;5009262;28;20214;-84
2023/09/06 03:20:42;;;;;;;5.43;4.93;;;;;;;17.40;69.54;95795.22;5014271;28;20203;-84
2023/09/06 03:23:17;;;;;;;5.28;4.80;;;;;;;17.40;69.59;95803.03;5014082;28;20222;-84
2023/09/06 03:25:45;;;;;;;5.80;5.30;;;;;;;17.42;69.35;95795.81;5015204;28;20245;-84
2023/09/06 03:28:12;;;;;;;5.20;4.75;;;;;;;17.37;69.56;95783.41;5013866;28;20249;-85
2023/09/06 03:30:39;;;;;;;5.50;5.00;;;;;;;17.36;69.63;95788.84;5009942;28;20215;-84
2023/09/06 03:33:06;;;;;;;5.55;4.97;;;;;;;17.31;69.47;95799.91;5011945;28;20253;-84
2023/09/06 03:35:32;;;;;;;6.25;4.85;;;;;;;17.45;69.31;95787.56;5013925;28;20222;-84
2023/09/06 03:37:59;;;;;;;6.60;4.88;;;;;;;17.44;68.99;95776.38;5013347;28;20203;-84
2023/09/06 03:40:34;;;;;;;5.63;5.00;;;;;;;17.43;68.65;95781.78;5014115;28;20206;-84
2023/09/06 03:43:14;;;;;;;5.00;4.60;;;;;;;17.43;68.77;95777.38;5002671;28;20285;-84
2023/09/06 03:45:44;;;;;;;6.45;4.97;;;;;;;17.30;69.01;95782.69;4999046;28;20242;-84
2023/09/06 03:48:11;;;;;;;6.95;4.93;;;;;;;17.30;69.00;95794.91;5005427;28;20202;-84
2023/09/06 03:50:37;;;;;;;6.13;5.50;;;;;;;17.19;69.63;95799.78;5013456;28;20219;-84
2023/09/06 03:53:04;;;;;;;5.78;5.15;;;;;;;17.10;70.12;95818.50;5013749;28;20234;-84
2023/09/06 03:55:32;;;;;;;5.60;5.07;;;;;;;17.08;70.50;95823.09;5012018;28;20430;-84
2023/09/06 03:57:59;;;;;;;4.93;4.53;;;;;;;16.96;70.92;95832.56;5013763;28;20202;-84
2023/09/06 04:00:30;;;;;;;6.07;5.40;;;;;;;16.89;71.29;95833.44;5013371;28;20353;-84
2023/09/06 04:02:57;;;;;;;5.65;5.15;;;;;;;16.82;71.24;95843.06;4993120;28;20202;-84
2023/09/06 04:05:25;;;;;;;5.38;4.80;;;;;;;16.80;71.71;95849.47;5005832;28;20254;-83
2023/09/06 04:07:55;;;;;;;5.80;5.30;;;;;;;16.65;72.25;95870.56;5012084;28;20255;-83
2023/09/06 04:10:23;;;;;;;5.88;5.28;;;;;;;16.65;72.87;95882.75;5013096;28;20230;-84
2023/09/06 04:12:51;;;;;;;5.60;5.10;;;;;;;16.64;73.06;95894.16;5013431;28;20226;-84
2023/09/06 04:15:21;;;;;;;5.57;5.10;;;;;;;16.71;72.72;95890.53;5013709;28;20257;-84
2023/09/06 04:17:52;;;;;;;8.88;5.45;;;;;;;16.77;72.23;95879.28;5012258;28;20203;-83
2023/09/06 04:20:19;;;;;;;6.05;5.40;;;;;;;16.79;72.14;95881.69;5004512;28;20247;-83
2023/09/06 04:22:47;;;;;;;6.10;5.07;;;;;;;16.86;71.59;95865.06;5008109;28;20206;-83
2023/09/06 04:25:16;;;;;;;5.97;5.47;;;;;;;16.84;71.69;95867.06;5012568;28;20729;-84
2023/09/06 04:27:44;;;;;;;5.28;4.80;;;;;;;17.01;70.83;95854.34;5012746;28;20219;-83
2023/09/06 04:30:11;;;;;;;5.80;5.30;;;;;;;17.06;70.65;95830.31;5012005;28;20253;-83
2023/09/06 04:32:38;;;;;;;5.70;5.20;;;;;;;17.08;70.61;95829.09;5009027;28;20692;-82
2023/09/06 04:35:07;;;;;;;5.85;5.18;;;;;;;17.11;70.16;95825.28;5014365;28;20218;-83
2023/09/06 04:37:35;;;;;;;5.47;4.97;;;;;;;17.21;69.75;95816.00;5007221;28;20234;-84
2023/09/06 04:40:02;;;;;;;5.70;5.13;;;;;;;17.23;69.36;95795.75;5016408;28;20206;-84
2023/09/06 04:42:28;;;;;;;6.65;5.20;;;;;;;17.25;69.37;95798.16;5017494;28;20231;-83
2023/09/06 04:44:55;;;;;;;5.88;5.28;;;;;;;17.17;69.62;95814.00;5005762;28;20237;-84
2023/09/06 04:47:21;;;;;;;5.38;4.85;;;;;;;17.13;69.82;95821.44;5010794;28;20262;-84
2023/09/06 04:49:48;;;;;;;5.80;5.30;;;;;;;17.19;69.95;95822.41;5006518;28;20202;-83
2023/09/06 04:52:15;;;;;;;5.70;5.00;;;;;;;17.08;70.20;95839.50;5007176;28;20211;-83
2023/09/06 04:54:43;;;;;;;6.30;5.07;;;;;;;17.05;70.28;95839.13;5010004;28;20303;-83
2023/09/06 04:57:09;;;;;;;5.22;4.75;;;;;;;17.02;70.19;95834.34;5012753;28;20239;-84
2023/09/06 04:59:36;;;;;;;7.07;5.15;;;;;;;17.12;69.93;95827.69;5015014;28;20408;-82
2023/09/06 05:02:04;;;;;;;5.88;5.30;;;;;;;16.96;69.98;95837.78;5016018;28;20201;-81
2023/09/06 05:04:31;;;;;;;5.70;5.20;;;;;;;16.71;70.72;95861.94;5010025;28;20231;-81
2023/09/06 05:06:57;;;;;;;5.68;5.18;;;;;;;16.56;71.88;95900.34;5016489;28;20566;-83
2023/09/06 05:09:25;;;;;;;5.53;5.03;;;;;;;16.61;72.35;95908.34;5007435;28;20678;-84
2023/09/06 05:11:52;;;;;;;7.20;5.15;;;;;;;16.68;72.38;95919.56;5009116;28;20334;-83
2023/09/06 05:14:19;;;;;;;5.28;4.75;;;;;;;16.69;72.52;95922.94;5006163;28;20215;-84
2023/09/06 05:16:45;;;;;;;5.57;4.82;;;;;;;16.75;72.41;95915.09;5011654;28;20278;-84
2023/09/06 05:19:12;;;;;;;5.57;5.07;;;;;;;16.70;72.75;95933.16;5008283;28;20205;-84
2023/09/06 05:21:38;;;;;;;6.70;5.40;;;;;;;16.76;73.02;95937.50;5009347;28;20202;-84
2023/09/06 05:24:05;;;;;;;5.90;5.30;;;;;;;16.81;72.13;95923.88;5003333;28;20225;-83
2023/09/06 05:26:34;;;;;;;5.45;5.00;;;;;;;16.87;71.97;95916.06;5010991;28;20223;-84
2023/09/06 05:29:00;;;;;;;4.85;4.45;;;;;;;17.06;71.14;95890.97;5006926;28;20616;-83
2023/09/06 05:31:27;;;;;;;6.18;5.03;;;;;;;17.17;70.45;95872.06;5016261;28;20283;-83
2023/09/06 05:33:53;;;;;;;6.70;6.00;;;;;;;17.17;70.57;95874.66;5015971;28;20775;-84
2023/09/06 05:36:20;;;;;;;9.02;5.22;;;;;;;17.18;70.80;95883.25;5017314;28;20199;-83
2023/09/06 05:38:47;;;;;;;5.88;5.38;;;;;;;17.24;70.26;95882.44;5016696;28;20222;-84
2023/09/06 05:41:13;;;;;;;5.95;4.97;;;;;;;17.21;71.47;95914.88;5007036;28;20274;-84
2023/09/06 05:43:41;;;;;;;8.18;5.35;;;;;;;17.26;71.38;95912.47;5015062;28;20640;-85
2023/09/06 05:46:08;;;;;;;7.15;6.30;;;;;;;17.33;70.91;95901.19;5015495;28;20219;-84
2023/09/06 05:48:34;;;;;;;6.97;6.10;;;;;;;17.38;71.18;95899.56;5018009;28;20210;-83
2023/09/06 05:51:01;;;;;;;10.32;5.80;;;;;;;17.54;70.25;95880.81;5017130;28;20198;-84
2023/09/06 05:53:29;;;;;;;7.40;6.70;;;;;;;17.66;70.12;95887.97;5016352;28;20657;-84
2023/09/06 05:55:57;;;;;;;7.40;5.88;;;;;;;17.83;70.14;95886.41;5004397;28;20207;-84
2023/09/06 05:58:23;;;;;;;8.88;6.53;;;;;;;17.88;70.50;95905.63;5015639;28;20225;-84
2023/09/06 06:00:54;;;;;;;40.83;36.55;;;;;;;17.94;70.33;95904.75;5015934;28;20209;-84
2023/09/06 06:03:20;;;;;;;15.38;13.77;;;;;;;18.09;70.01;95898.41;5015086;28;20219;-83
2023/09/06 06:05:47;;;;;;;9.30;7.85;;;;;;;18.15;69.85;95897.53;5015980;28;20553;-85
2023/09/06 06:08:14;;;;;;;8.80;5.95;;;;;;;18.21;69.83;95902.69;5016249;28;20226;-84
2023/09/06 06:10:40;;;;;;;7.43;5.97;;;;;;;18.32;69.80;95892.53;5017356;28;20207;-84
2023/09/06 06:13:08;;;;;;;8.65;6.45;;;;;;;18.40;69.70;95884.44;5012641;28;20222;-84
2023/09/06 06:15:35;;;;;;;6.88;6.15;;;;;;;18.46;69.77;95899.22;5017085;28;20195;-85
2023/09/06 06:18:04;;;;;;;9.10;6.43;;;;;;;18.55;69.66;95893.50;5016111;28;20194;-84
2023/09/06 06:20:31;;;;;;;8.27;6.68;;;;;;;18.64;69.48;95891.44;5017818;28;20233;-84
2023/09/06 06:22:58;;;;;;;7.43;6.65;;;;;;;18.75;68.99;95898.50;5016875;28;20237;-85
2023/09/06 06:25:25;;;;;;;7.65;6.72;;;;;;;18.78;69.50;95889.44;5016978;28;20198;-84
2023/09/06 06:27:51;;;;;;;7.85;6.63;;;;;;;18.88;68.95;95889.69;5015749;28;20223;-85
2023/09/06 06:30:19;;;;;;;7.75;6.60;;;;;;;18.97;68.85;95888.38;5010448;28;20199;-85
2023/09/06 06:32:45;;;;;;;10.10;6.35;;;;;;;19.00;68.41;95876.72;4997375;28;20291;-84
2023/09/06 06:35:13;;;;;;;6.50;5.90;;;;;;;19.13;68.23;95881.75;5003324;28;20195;-84
2023/09/06 06:37:40;;;;;;;7.35;5.80;;;;;;;18.95;67.16;95839.03;5016550;28;20234;-84
2023/09/06 06:40:07;;;;;;;11.98;6.43;;;;;;;18.95;67.63;95857.28;5016940;28;20207;-84
2023/09/06 06:42:34;;;;;;;24.77;22.20;;;;;;;19.14;67.82;95860.63;5011775;28;20210;-84
2023/09/06 06:45:00;;;;;;;26.48;23.90;;;;;;;19.27;66.87;95826.50;5013682;28;20226;-85
2023/09/06 06:47:27;;;;;;;11.57;10.13;;;;;;;19.37;66.76;95820.72;5016727;28;20239;-85
2023/09/06 06:49:55;;;;;;;12.15;6.85;;;;;;;19.35;65.53;95781.00;5017090;28;20221;-84
2023/09/06 06:52:22;;;;;;;8.13;6.72;;;;;;;19.42;65.95;95791.34;5016625;28;20245;-84
2023/09/06 06:54:49;;;;;;;7.00;6.30;;;;;;;19.50;65.18;95765.69;5015250;28;20207;-84
2023/09/06 06:57:15;;;;;;;9.88;5.97;;;;;;;19.78;64.89;95757.16;5016063;28;20214;-85
2023/09/06 06:59:42;;;;;;;7.38;6.60;;;;;;;19.91;64.50;95743.03;5016708;28;20191;-83
2023/09/06 07:02:09;;;;;;;7.05;6.38;;;;;;;20.11;63.87;95726.97;5013931;28;20203;-85
2023/09/06 07:04:36;;;;;;;9.30;6.50;;;;;;;20.34;63.81;95726.88;5012983;28;20215;-85
2023/09/06 07:07:03;;;;;;;10.07;6.53;;;;;;;20.51;62.68;95687.72;5016134;28;20219;-84
2023/09/06 07:09:31;;;;;;;7.82;6.80;;;;;;;20.64;62.23;95669.09;5006927;28;20227;-85
2023/09/06 07:11:57;;;;;;;12.10;6.72;;;;;;;20.84;62.13;95679.88;5016500;28;20625;-84
2023/09/06 07:14:24;;;;;;;8.05;6.53;;;;;;;20.87;62.12;95671.56;5015641;28;20218;-84
2023/09/06 07:16:51;;;;;;;6.75;6.15;;;;;;;20.90;62.24;95678.16;5012512;28;20590;-84
2023/09/06 07:19:17;;;;;;;7.43;6.43;;;;;;;21.03;62.02;95675.19;5011892;28;20205;-85
2023/09/06 07:21:46;;;;;;;7.40;6.70;;;;;;;21.27;61.23;95644.41;5015666;28;20195;-84
2023/09/06 07:24:13;;;;;;;9.18;7.15;;;;;;;21.28;60.69;95612.75;5015788;28;20215;-84
2023/09/06 07:26:42;;;;;;;7.25;6.57;;;;;;;21.45;60.74;95619.75;5015209;28;20218;-84
2023/09/06 07:29:10;;;;;;;8.43;6.25;;;;;;;21.54;61.29;95634.81;5002571;28;20645;-85
2023/09/06 07:31:36;;;;;;;6.82;6.20;;;;;;;21.59;61.12;95640.09;5016419;28;20199;-85
2023/09/06 07:34:03;;;;;;;9.00;6.72;;;;;;;21.90;60.57;95622.91;5010153;28;20226;-86
2023/09/06 07:36:30;;;;;;;9.15;7.25;;;;;;;22.14;59.94;95609.50;5012251;28;20214;-84
2023/09/06 07:38:57;;;;;;;9.43;7.80;;;;;;;22.22;58.65;95548.75;5011550;28;20198;-84
2023/09/06 07:41:25;;;;;;;7.32;6.65;;;;;;;22.07;57.71;95498.78;5014767;28;20209;-83
2023/09/06 07:43:53;;;;;;;7.05;6.43;;;;;;;22.24;57.98;95512.56;5006005;28;20582;-84
2023/09/06 07:46:24;;;;;;;7.22;6.53;;;;;;;22.45;58.38;95543.16;5002157;28;20202;-84
2023/09/06 07:48:51;;;;;;;8.45;6.05;;;;;;;22.68;57.75;95511.28;5015420;28;20191;-84
2023/09/06 07:51:17;;;;;;;6.68;6.07;;;;;;;22.71;58.17;95531.75;5015285;28;20268;-85
2023/09/06 07:53:45;;;;;;;7.15;6.45;;;;;;;22.83;58.08;95536.88;5015885;28;20217;-85
2023/09/06 07:56:13;;;;;;;7.25;5.85;;;;;;;23.04;56.75;95487.84;5015413;28;20632;-85
2023/09/06 07:58:39;;;;;;;6.90;6.32;;;;;;;23.13;56.24;95451.38;5009269;28;20223;-84
2023/09/06 08:01:07;;;;;;;6.60;5.97;;;;;;;23.19;56.00;95434.56;4996040;28;20198;-86
2023/09/06 08:03:34;;;;;;;6.20;5.65;;;;;;;23.28;56.08;95451.44;5001966;28;20580;-85
2023/09/06 08:06:00;;;;;;;6.00;5.50;;;;;;;23.41;56.23;95448.28;5008907;28;20306;-84
2023/09/06 08:08:27;;;;;;;6.28;5.68;;;;;;;23.72;56.27;95462.28;5014484;28;20257;-84
2023/09/06 08:10:53;;;;;;;6.25;5.30;;;;;;;23.98;55.61;95442.84;4998755;28;20569;-85
2023/09/06 08:13:19;;;;;;;7.80;5.15;;;;;;;24.03;53.98;95360.50;4995288;28;20262;-85
2023/09/06 08:15:46;;;;;;;6.13;5.63;;;;;;;24.29;54.75;95401.50;4996272;28;20211;-85
2023/09/06 08:18:14;;;;;;;7.45;5.38;;;;;;;24.38;54.56;95378.09;5014168;28;20206;-85
2023/09/06 08:20:40;;;;;;;6.43;5.40;;;;;;;24.40;53.52;95341.75;5009858;28;20207;-84
2023/09/06 08:23:07;;;;;;;5.72;5.18;;;;;;;24.48;53.45;95329.88;5008544;28;20235;-85
2023/09/06 08:25:34;;;;;;;9.60;4.88;;;;;;;24.74;53.18;95337.38;5005299;28;20199;-85
2023/09/06 08:28:04;;;;;;;5.70;4.85;;;;;;;24.95;53.08;95308.31;5015113;28;20223;-83
2023/09/06 08:30:30;;;;;;;6.63;5.30;;;;;;;25.17;52.50;95311.34;5015136;28;20211;-85
2023/09/06 08:32:57;;;;;;;5.00;4.60;;;;;;;25.44;52.25;95308.22;5014871;28;20218;-85
2023/09/06 08:35:26;;;;;;;5.70;5.20;;;;;;;25.50;51.77;95250.97;5010365;28;20202;-84
2023/09/06 08:37:52;;;;;;;5.40;5.00;;;;;;;25.50;51.59;95272.06;5008591;28;20290;-86
2023/09/06 08:40:21;;;;;;;25.35;23.05;;;;;;;25.59;51.35;95254.59;5006528;28;20206;-86
2023/09/06 08:42:49;;;;;;;9.88;9.05;;;;;;;25.78;50.52;95219.31;5013487;28;20213;-83
2023/09/06 08:45:21;;;;;;;5.35;4.85;;;;;;;25.92;51.53;95266.13;4995079;28;20668;-83
2023/09/06 08:47:48;;;;;;;4.90;4.38;;;;;;;26.15;51.29;95244.22;4996544;28;20226;-83
2023/09/06 08:50:15;;;;;;;5.65;5.15;;;;;;;26.17;50.75;95226.22;5014365;28;20237;-83
2023/09/06 08:52:45;;;;;;;4.97;4.50;;;;;;;26.29;50.68;95215.28;5010142;28;20667;-83
2023/09/06 08:55:12;;;;;;;5.00;4.60;;;;;;;26.43;50.49;95208.25;5003789;28;20227;-81
2023/09/06 08:57:40;;;;;;;6.93;5.10;;;;;;;26.63;50.04;95205.31;5009920;28;20203;-83
2023/09/06 09:00:09;;;;;;;5.43;4.93;;;;;;;26.86;49.57;95179.88;5016168;28;20203;-83
2023/09/06 09:02:36;;;;;;;5.55;4.88;;;;;;;26.84;49.02;95150.31;5016312;28;20202;-82
2023/09/06 09:05:04;;;;;;;6.40;5.38;;;;;;;26.86;49.09;95153.44;5015103;28;20219;-83
2023/09/06 09:07:31;;;;;;;7.45;5.20;;;;;;;27.04;49.54;95159.78;5015624;28;20326;-84
2023/09/06 09:10:04;;;;;;;7.15;5.30;;;;;;;27.20;49.09;95165.59;5007974;28;20203;-82
2023/09/06 09:12:31;;;;;;;6.82;5.35;;;;;;;27.41;48.89;95138.50;5014945;28;20205;-83
2023/09/06 09:14:59;;;;;;;7.47;5.18;;;;;;;27.47;48.30;95129.41;5013978;28;20253;-83
2023/09/06 09:17:27;;;;;;;5.15;4.68;;;;;;;27.48;48.07;95109.03;5013901;28;20199;-83
2023/09/06 09:19:56;;;;;;;5.68;5.05;;;;;;;27.52;48.23;95102.81;5017039;28;20207;-85
2023/09/06 09:22:24;;;;;;;5.03;4.63;;;;;;;27.33;46.83;95043.19;5017784;28;20245;-84
2023/09/06 09:24:50;;;;;;;6.07;4.47;;;;;;;27.36;47.48;95059.25;5012273;28;20241;-83
2023/09/06 09:27:19;;;;;;;6.85;4.68;;;;;;;27.51;47.61;95068.75;5008029;28;20250;-83
2023/09/06 09:29:47;;;;;;;5.43;4.22;;;;;;;27.46;47.21;95063.56;5008708;28;20611;-83
2023/09/06 09:32:14;;;;;;;4.57;4.10;;;;;;;27.55;47.26;95031.91;5015440;28;20218;-82
2023/09/06 09:34:41;;;;;;;5.10;4.57;;;;;;;27.64;47.08;95054.75;5006235;28;20234;-83
2023/09/06 09:37:09;;;;;;;6.38;4.13;;;;;;;27.59;47.26;95046.13;5018361;28;20270;-83
2023/09/06 09:39:35;;;;;;;6.55;4.78;;;;;;;27.81;46.68;95036.38;5017618;28;20209;-83
2023/09/06 09:42:02;;;;;;;5.20;4.70;;;;;;;27.64;46.84;95035.47;5012971;28;20210;-83
2023/09/06 09:44:30;;;;;;;4.63;4.22;;;;;;;27.77;47.14;95058.44;5014200;28;20273;-82
2023/09/06 09:46:57;;;;;;;5.22;4.32;;;;;;;27.94;47.13;95053.31;5017757;28;20207;-83
2023/09/06 09:49:26;;;;;;;5.68;4.95;;;;;;;27.89;46.00;95010.31;4998689;28;20219;-83
2023/09/06 09:51:53;;;;;;;5.40;4.30;;;;;;;27.89;45.98;94999.72;4998751;28;20277;-83
2023/09/06 09:54:24;;;;;;;4.93;4.40;;;;;;;27.80;46.75;95021.59;5016001;28;20222;-83
2023/09/06 09:57:00;;;;;;;5.65;4.82;;;;;;;27.38;47.79;95072.97;5012964;28;20195;-83
2023/09/06 09:59:27;;;;;;;6.65;5.03;;;;;;;27.38;48.14;95112.63;5009727;28;20202;-82
2023/09/06 10:01:58;;;;;;;5.28;4.60;;;;;;;27.36;48.56;95106.06;5015504;28;20202;-83
2023/09/06 10:04:27;;;;;;;4.65;3.72;;;;;;;27.67;47.50;95093.84;5017802;28;20218;-83
2023/09/06 10:06:55;;;;;;;4.47;4.07;;;;;;;27.79;46.78;95040.41;5018070;28;20272;-83
2023/09/06 10:09:22;;;;;;;4.60;4.20;;;;;;;27.60;47.51;95053.00;5015746;28;20214;-83
2023/09/06 10:11:51;;;;;;;5.15;4.20;;;;;;;27.40;48.01;95113.13;5019219;28;20280;-83
2023/09/06 10:14:22;;;;;;;5.43;4.60;;;;;;;27.13;48.91;95129.75;5000951;28;20277;-80
2023/09/06 10:16:50;;;;;;;6.25;4.40;;;;;;;27.23;49.44;95191.44;5009800;28;20218;-86
2023/09/06 10:19:18;;;;;;;5.70;4.97;;;;;;;27.33;49.01;95164.81;5010003;28;20842;-86
2023/09/06 10:21:46;;;;;;;6.15;4.30;;;;;;;27.05;49.10;95145.50;5010463;28;20210;-86
2023/09/06 10:24:20;;;;;;;7.03;4.50;;;;;;;26.87;49.41;95170.88;5009915;28;20219;-83
2023/09/06 10:26:47;;;;;;;4.93;4.43;;;;;;;26.68;50.52;95207.88;5009759;28;20206;-82
2023/09/06 10:29:19;;;;;;;5.63;4.63;;;;;;;26.71;49.75;95185.41;5005286;28;20211;-83
2023/09/06 10:31:50;;;;;;;7.40;6.80;;;;;;;26.83;49.90;95199.72;5009228;28;20294;-84
2023/09/06 10:34:18;;;;;;;10.93;9.50;;;;;;;26.81;50.03;95206.38;5009076;28;20568;-85
2023/09/06 10:36:53;;;;;;;6.72;6.10;;;;;;;26.75;50.29;95197.72;5009755;28;20202;-84
2023/09/06 10:39:21;;;;;;;5.95;4.30;;;;;;;26.42;49.66;95172.34;5011607;28;20337;-83
2023/09/06 10:42:16;;;;;;;5.95;4.43;;;;;;;26.19;50.25;95171.31;5014487;28;20226;-83
2023/09/06 10:45:08;;;;;;;4.95;4.40;;;;;;;26.26;50.57;95229.03;5008531;28;20223;-83
2023/09/06 10:47:35;;;;;;;6.35;4.35;;;;;;;26.38;50.98;95238.13;5003134;28;20203;-83
2023/09/06 10:50:16;;;;;;;5.20;4.72;;;;;;;26.37;50.75;95239.19;4993609;28;20253;-82
2023/09/06 10:52:46;;;;;;;4.90;4.47;;;;;;;26.41;50.97;95237.56;4994877;28;20228;-83
2023/09/06 10:55:18;;;;;;;4.85;4.28;;;;;;;26.61;50.57;95220.66;4999973;28;20226;-83
2023/09/06 10:57:50;;;;;;;6.38;4.68;;;;;;;26.52;50.26;95195.97;5014694;28;20195;-84
2023/09/06 11:00:19;;;;;;;5.70;4.60;;;;;;;26.46;50.18;95191.84;4999499;28;20199;-83
2023/09/06 11:03:20;;;;;;;5.15;4.65;;;;;;;26.56;49.88;95181.09;5011033;28;20203;-84
2023/09/06 11:05:53;;;;;;;6.15;4.45;;;;;;;26.74;49.41;95158.41;5014479;28;20240;-86
2023/09/06 11:08:25;;;;;;;4.82;4.18;;;;;;;26.59;49.01;95121.66;5013466;28;20222;-83
2023/09/06 11:10:53;;;;;;;6.22;4.00;;;;;;;26.57;49.02;95123.78;5013089;28;20205;-83
2023/09/06 11:13:20;;;;;;;5.65;4.28;;;;;;;26.56;49.24;95135.44;5012386;28;20306;-83
2023/09/06 11:15:50;;;;;;;7.78;4.10;;;;;;;26.68;48.83;95101.44;5013615;28;20195;-83
2023/09/06 11:18:17;;;;;;;12.38;11.35;;;;;;;26.72;48.98;95108.50;5004465;28;20203;-83
2023/09/06 11:20:49;;;;;;;5.70;5.20;;;;;;;26.60;48.64;95094.97;4999083;28;20207;-84
2023/09/06 11:23:17;;;;;;;5.15;4.68;;;;;;;26.66;49.83;95166.97;5013273;28;20611;-83
2023/09/06 11:25:45;;;;;;;4.65;4.18;;;;;;;26.51;48.11;95058.94;5011182;28;20203;-83
2023/09/06 11:28:17;;;;;;;4.43;4.03;;;;;;;26.38;49.17;95113.25;5013166;28;20242;-84
2023/09/06 11:30:46;;;;;;;4.60;4.28;;;;;;;26.33;48.71;95108.06;5014414;28;20207;-83
2023/09/06 11:33:13;;;;;;;8.60;4.03;;;;;;;26.45;48.13;95074.09;5011182;28;20630;-83
2023/09/06 11:35:51;;;;;;;3.95;3.65;;;;;;;26.55;48.04;95059.94;5011593;28;20203;-83